Dunhua, China
Current Conditions -  °F | °C
As of 4:00 PM on Thursday 23 Oct 2014 (Local Time) from ZYCC Reporting Station
Smoke Smoke  
Wind Chill: 59°   Ceiling: Unl
Heat Index: 59°   Visibility: 2.5mi
Dew Point: 41°   Wind: 18mph
Humidity: 51%   Direction: 200°SSW
Pressure: 29.83"   Gusts: NA
Location:  43.35°N, 128.22°E
Report Text: ZYCC 230800Z 20008MPS 4000 FU FEW026 15/05 Q1010 NOSIG
Loading
Personal Weather Stations






























Interactive Weather Map
Tropical Storm Tracking
New forecast layout! Learn more

10-Day Weather Forecast

Advertisements
Track Severe Weather on mobile